createdAt,value
2019-02-15T00:01:30.080Z,99.90
2019-02-15T00:04:04.432Z,99.90
2019-02-15T00:06:35.854Z,99.90
2019-02-15T00:09:07.111Z,99.90
2019-02-15T00:11:39.078Z,99.90
2019-02-15T00:14:09.442Z,99.90
2019-02-15T00:16:39.808Z,99.90
2019-02-15T00:19:25.826Z,99.90
2019-02-15T00:21:56.332Z,99.90
2019-02-15T00:24:27.492Z,99.90
2019-02-15T00:26:57.845Z,99.90
2019-02-15T00:29:28.176Z,99.90
2019-02-15T00:31:58.490Z,99.90
2019-02-15T00:34:28.834Z,99.90
2019-02-15T00:36:59.210Z,99.90
2019-02-15T00:39:29.679Z,99.90
2019-02-15T00:42:00.081Z,99.90
2019-02-15T00:44:30.395Z,99.90
2019-02-15T00:47:18.505Z,99.90
2019-02-15T00:50:07.230Z,99.90
2019-02-15T00:53:11.913Z,99.90
2019-02-15T00:56:01.718Z,99.90
2019-02-15T00:58:53.230Z,99.90
2019-02-15T01:01:49.254Z,99.90
2019-02-15T01:04:47.180Z,99.90
2019-02-15T01:07:46.851Z,99.90
2019-02-15T01:10:31.272Z,99.90
2019-02-15T01:13:06.207Z,99.90
2019-02-15T01:15:36.541Z,99.90
2019-02-15T01:18:06.912Z,99.90
2019-02-15T01:20:37.280Z,99.90
2019-02-15T01:23:11.216Z,99.90
2019-02-15T01:26:15.458Z,99.90
2019-02-15T01:29:12.212Z,99.90
2019-02-15T01:32:16.790Z,99.90
2019-02-15T01:35:08.086Z,99.90
2019-02-15T01:37:50.376Z,99.90
2019-02-15T01:40:31.156Z,99.90
2019-02-15T01:43:20.076Z,99.90
2019-02-15T01:46:16.053Z,99.90
2019-02-15T01:48:46.475Z,99.90
2019-02-15T01:51:16.796Z,99.90
2019-02-15T01:53:47.162Z,99.90
2019-02-15T01:56:17.515Z,99.90
2019-02-15T01:58:48.122Z,99.90
2019-02-15T02:01:22.564Z,99.90
2019-02-15T02:03:52.966Z,99.90
2019-02-15T02:06:23.301Z,99.90
2019-02-15T02:08:53.724Z,99.90
2019-02-15T02:11:24.106Z,99.90
2019-02-15T02:13:55.253Z,99.90
2019-02-15T02:16:25.608Z,99.90
2019-02-15T02:18:55.996Z,99.90
2019-02-15T02:21:26.370Z,99.90
2019-02-15T02:23:56.720Z,99.90
2019-02-15T02:26:27.087Z,99.90
2019-02-15T02:28:57.976Z,99.90
2019-02-15T02:31:29.003Z,99.90
2019-02-15T02:33:59.332Z,99.90
2019-02-15T02:37:00.972Z,99.90
2019-02-15T02:39:31.295Z,99.90
2019-02-15T02:42:01.633Z,99.90
2019-02-15T02:44:32.102Z,99.90
2019-02-15T02:47:02.460Z,99.90
2019-02-15T02:49:32.828Z,99.90
2019-02-15T02:52:04.226Z,99.90
2019-02-15T02:54:34.558Z,99.90
2019-02-15T02:57:04.946Z,99.90
2019-02-15T02:59:36.124Z,99.90
2019-02-15T03:02:06.399Z,99.90
2019-02-15T03:04:36.821Z,99.90
2019-02-15T03:07:07.312Z,99.90
2019-02-15T03:09:37.722Z,99.90
2019-02-15T03:12:08.064Z,99.90
2019-02-15T03:14:38.432Z,99.90
2019-02-15T03:17:08.757Z,99.90
2019-02-15T03:19:39.242Z,99.90
2019-02-15T03:22:09.605Z,99.90
2019-02-15T03:24:39.987Z,99.90
2019-02-15T03:27:10.312Z,99.90
2019-02-15T03:29:41.127Z,99.90
2019-02-15T03:32:11.466Z,99.90
2019-02-15T03:34:41.795Z,99.90
2019-02-15T03:37:49.392Z,99.90
2019-02-15T03:40:23.064Z,99.90
2019-02-15T03:42:53.490Z,99.90
2019-02-15T03:45:23.880Z,99.90
2019-02-15T03:47:54.306Z,99.90
2019-02-15T03:50:24.719Z,99.90
2019-02-15T03:52:55.104Z,99.90
2019-02-15T03:55:26.558Z,99.90
2019-02-15T03:57:56.863Z,99.90
2019-02-15T04:00:27.678Z,99.90
2019-02-15T04:02:58.048Z,99.90
2019-02-15T04:05:28.427Z,99.90
2019-02-15T04:07:58.775Z,99.90
2019-02-15T04:10:29.156Z,99.90
2019-02-15T04:12:59.469Z,99.90
2019-02-15T04:15:29.805Z,99.90
2019-02-15T04:18:00.182Z,99.90
2019-02-15T04:20:30.523Z,99.90
2019-02-15T04:23:00.950Z,99.90
2019-02-15T04:25:31.311Z,99.90
2019-02-15T04:28:01.614Z,99.90
2019-02-15T04:30:32.352Z,99.90
2019-02-15T04:33:02.742Z,99.90
2019-02-15T04:35:33.064Z,99.90
2019-02-15T04:38:03.397Z,99.90
2019-02-15T04:40:33.736Z,99.90
2019-02-15T04:43:04.076Z,99.90
2019-02-15T04:45:34.435Z,99.90
2019-02-15T04:48:04.813Z,99.90
2019-02-15T04:50:35.204Z,99.90
2019-02-15T04:53:05.584Z,99.90
2019-02-15T04:55:35.971Z,99.90
2019-02-15T04:58:06.329Z,99.90
2019-02-15T05:00:37.154Z,99.90
2019-02-15T05:03:07.481Z,99.90
2019-02-15T05:05:37.853Z,99.90
2019-02-15T05:08:08.184Z,99.90
2019-02-15T05:10:38.595Z,99.90
2019-02-15T05:13:08.882Z,99.90
2019-02-15T05:15:39.233Z,99.90
2019-02-15T05:18:09.596Z,99.90
2019-02-15T05:20:41.002Z,99.90
2019-02-15T05:23:11.438Z,99.90
2019-02-15T05:25:41.736Z,99.90
2019-02-15T05:28:12.088Z,99.90
2019-02-15T05:30:43.829Z,99.90
2019-02-15T05:33:14.211Z,99.90
2019-02-15T05:35:44.536Z,99.90
2019-02-15T05:38:14.912Z,99.90
2019-02-15T05:40:45.244Z,99.90
2019-02-15T05:43:15.604Z,99.90
2019-02-15T05:45:45.981Z,99.90
2019-02-15T05:48:16.299Z,99.90
2019-02-15T05:50:46.642Z,99.90
2019-02-15T05:53:17.006Z,99.90
2019-02-15T05:55:47.352Z,99.90
2019-02-15T05:58:17.667Z,99.90
2019-02-15T06:00:49.003Z,99.90
2019-02-15T06:03:19.414Z,99.90
2019-02-15T06:05:49.730Z,99.90
2019-02-15T06:08:20.058Z,99.90
2019-02-15T06:10:50.399Z,99.90
2019-02-15T06:13:21.124Z,99.90
2019-02-15T06:15:51.456Z,99.90
2019-02-15T06:18:21.862Z,99.90
2019-02-15T06:20:52.261Z,99.90
2019-02-15T06:23:22.622Z,99.90
2019-02-15T06:25:53.044Z,99.90
2019-02-15T06:28:23.364Z,99.90
2019-02-15T06:30:53.668Z,99.90
2019-02-15T06:33:24.023Z,99.90
2019-02-15T06:35:54.360Z,99.90
2019-02-15T06:38:34.262Z,99.90
2019-02-15T06:40:56.703Z,99.90
2019-02-15T06:43:27.152Z,99.90
2019-02-15T06:45:57.560Z,99.90
2019-02-15T06:48:27.906Z,99.90
2019-02-15T06:50:58.277Z,99.90
2019-02-15T06:53:28.640Z,99.90
2019-02-15T06:55:58.974Z,99.90
2019-02-15T06:58:31.759Z,99.90
2019-02-15T07:01:18.944Z,99.90
2019-02-15T07:04:15.314Z,99.90
2019-02-15T07:06:45.648Z,99.90
2019-02-15T07:09:16.023Z,99.90
2019-02-15T07:11:46.443Z,99.90
2019-02-15T07:14:16.888Z,99.90
2019-02-15T07:16:47.554Z,99.90
2019-02-15T07:19:20.586Z,99.90
2019-02-15T07:21:50.928Z,99.90
2019-02-15T07:24:21.324Z,99.90
2019-02-15T07:26:51.722Z,99.90
2019-02-15T07:29:23.180Z,99.90
2019-02-15T07:31:53.592Z,99.90
2019-02-15T07:34:25.736Z,99.90
2019-02-15T07:36:57.242Z,99.90
2019-02-15T07:39:27.710Z,99.90
2019-02-15T07:41:58.113Z,99.90
2019-02-15T07:44:28.500Z,99.80
2019-02-15T07:47:02.517Z,99.60
2019-02-15T07:49:32.927Z,99.60
2019-02-15T07:52:03.438Z,99.40
2019-02-15T07:54:34.901Z,99.10
2019-02-15T07:57:05.378Z,99.00
2019-02-15T07:59:36.798Z,98.50
2019-02-15T08:02:07.283Z,98.60
2019-02-15T08:04:39.432Z,98.40
2019-02-15T08:07:09.870Z,98.20
2019-02-15T08:09:40.358Z,97.50
2019-02-15T08:12:10.752Z,97.50
2019-02-15T08:14:47.284Z,97.20
2019-02-15T08:17:17.752Z,97.10
2019-02-15T08:19:49.158Z,96.70
2019-02-15T08:22:19.654Z,96.70
2019-02-15T08:24:49.972Z,96.10
2019-02-15T08:27:20.472Z,96.40
2019-02-15T08:29:50.970Z,96.40
2019-02-15T08:32:21.339Z,96.20
2019-02-15T08:34:51.760Z,95.70
2019-02-15T08:37:22.240Z,95.60
2019-02-15T08:39:52.672Z,95.50
2019-02-15T08:42:23.096Z,94.90
2019-02-15T08:44:53.931Z,95.00
2019-02-15T08:47:24.348Z,94.90
2019-02-15T08:49:54.768Z,94.50
2019-02-15T08:52:26.648Z,94.30
2019-02-15T08:54:57.129Z,94.20
2019-02-15T08:57:27.602Z,93.50
2019-02-15T09:00:04.557Z,93.60
2019-02-15T09:02:36.152Z,93.20
2019-02-15T09:05:09.822Z,92.80
2019-02-15T09:07:40.396Z,92.70
2019-02-15T09:10:11.946Z,92.60
2019-02-15T09:12:42.424Z,92.10
2019-02-15T09:15:15.567Z,91.40
2019-02-15T09:17:46.090Z,91.60
2019-02-15T09:20:16.661Z,90.50
2019-02-15T09:22:47.058Z,90.00
2019-02-15T09:25:17.498Z,89.30
2019-02-15T09:28:16.223Z,87.20
2019-02-15T09:30:55.335Z,86.50
2019-02-15T09:33:25.832Z,83.90
2019-02-15T09:35:56.326Z,82.30
2019-02-15T09:38:26.768Z,79.50
2019-02-15T09:40:57.264Z,78.90
2019-02-15T09:43:27.825Z,78.60
2019-02-15T09:45:58.374Z,77.60
2019-02-15T09:48:28.944Z,77.50
2019-02-15T09:50:59.381Z,78.20
2019-02-15T09:53:29.870Z,78.00
2019-02-15T09:56:00.370Z,77.30
2019-02-15T09:58:31.130Z,77.50
2019-02-15T10:01:01.616Z,78.30
2019-02-15T10:03:32.578Z,78.90
2019-02-15T10:06:04.648Z,78.10
2019-02-15T10:08:35.125Z,77.10
2019-02-15T10:11:05.548Z,77.20
2019-02-15T10:13:35.990Z,77.30
2019-02-15T10:16:06.445Z,76.00
2019-02-15T10:18:36.974Z,76.40
2019-02-15T10:21:07.462Z,75.50
2019-02-15T10:23:37.948Z,77.00
2019-02-15T10:26:08.434Z,77.30
2019-02-15T10:28:38.895Z,75.70
2019-02-15T10:31:09.340Z,76.40
2019-02-15T10:33:39.820Z,75.80
2019-02-15T10:36:11.662Z,74.80
2019-02-15T10:38:42.098Z,75.20
2019-02-15T10:41:14.468Z,74.90
2019-02-15T10:43:44.866Z,75.80
2019-02-15T10:46:15.299Z,75.80
2019-02-15T10:48:45.758Z,76.70
2019-02-15T10:51:16.341Z,77.60
2019-02-15T10:53:46.758Z,76.80
2019-02-15T10:56:17.186Z,76.90
2019-02-15T10:58:47.598Z,77.30
2019-02-15T11:01:18.036Z,77.00
2019-02-15T11:03:48.673Z,76.80
2019-02-15T11:06:20.966Z,76.40
2019-02-15T11:08:52.772Z,76.20
2019-02-15T11:11:23.371Z,76.40
2019-02-15T11:13:53.894Z,74.90
2019-02-15T11:16:24.396Z,74.10
2019-02-15T11:18:55.362Z,73.10
2019-02-15T11:21:25.876Z,73.60
2019-02-15T11:23:57.019Z,73.20
2019-02-15T11:26:28.754Z,73.20
2019-02-15T11:28:59.240Z,72.90
2019-02-15T11:31:29.776Z,72.80
2019-02-15T11:34:00.195Z,72.00
2019-02-15T11:36:32.142Z,72.20
2019-02-15T11:39:02.742Z,72.10
2019-02-15T11:41:34.328Z,72.00
2019-02-15T11:44:04.839Z,72.30
2019-02-15T11:46:35.356Z,72.50
2019-02-15T11:49:05.954Z,72.60
2019-02-15T11:51:36.453Z,72.30
2019-02-15T11:54:06.898Z,72.30
2019-02-15T11:56:37.377Z,72.60
2019-02-15T11:59:07.856Z,71.60
2019-02-15T12:01:38.310Z,70.80
2019-02-15T12:04:08.852Z,71.30
2019-02-15T12:06:39.345Z,70.40
2019-02-15T12:09:09.874Z,68.60
2019-02-15T12:11:40.292Z,68.50
2019-02-15T12:14:10.784Z,69.30
2019-02-15T12:16:41.262Z,69.00
2019-02-15T12:19:11.842Z,68.30
2019-02-15T12:21:42.352Z,68.30
2019-02-15T12:24:13.044Z,68.40
2019-02-15T12:26:43.474Z,68.10
2019-02-15T12:29:14.006Z,68.40
2019-02-15T12:31:44.444Z,69.00
2019-02-15T12:34:14.926Z,69.60
2019-02-15T12:36:46.514Z,69.70
2019-02-15T12:39:16.966Z,70.30
2019-02-15T12:41:47.356Z,70.10
2019-02-15T12:44:17.940Z,69.50
2019-02-15T12:46:48.594Z,68.30
2019-02-15T12:49:19.230Z,68.50
2019-02-15T12:51:49.745Z,69.20
2019-02-15T12:54:20.333Z,69.60
2019-02-15T12:56:50.926Z,68.30
2019-02-15T12:59:21.564Z,67.90
2019-02-15T13:01:51.976Z,68.50
2019-02-15T13:04:22.440Z,67.50
2019-02-15T13:06:53.327Z,68.80
2019-02-15T13:09:23.828Z,67.40
2019-02-15T13:11:54.959Z,66.40
2019-02-15T13:14:25.346Z,66.50
2019-02-15T13:16:55.716Z,67.40
2019-02-15T13:19:45.056Z,68.00
2019-02-15T13:22:15.483Z,68.50
2019-02-15T13:24:45.882Z,69.10
2019-02-15T13:27:16.285Z,69.40
2019-02-15T13:29:47.013Z,69.10
2019-02-15T13:32:17.372Z,69.60
2019-02-15T13:34:47.698Z,69.60
2019-02-15T13:37:18.536Z,70.00
2019-02-15T13:39:49.074Z,70.60
2019-02-15T13:42:19.395Z,70.50
2019-02-15T13:44:49.817Z,71.00
2019-02-15T13:47:20.161Z,70.70
2019-02-15T13:49:50.522Z,71.40
2019-02-15T13:52:20.911Z,71.60
2019-02-15T13:54:51.230Z,72.40
2019-02-15T13:57:21.661Z,74.50
2019-02-15T13:59:52.049Z,75.50
2019-02-15T14:02:22.418Z,76.40
2019-02-15T14:04:52.786Z,77.00
2019-02-15T14:07:23.124Z,77.80
2019-02-15T14:09:53.511Z,78.70
2019-02-15T14:12:23.928Z,79.20
2019-02-15T14:14:54.305Z,79.50
2019-02-15T14:17:44.194Z,80.20
2019-02-15T14:20:09.515Z,81.00
2019-02-15T14:22:39.882Z,81.70
2019-02-15T14:25:10.714Z,82.20
2019-02-15T14:27:41.174Z,82.40
2019-02-15T14:30:13.261Z,82.90
2019-02-15T14:32:43.708Z,83.00
2019-02-15T14:35:14.560Z,83.70
2019-02-15T14:37:46.327Z,84.40
2019-02-15T14:40:16.766Z,84.40
2019-02-15T14:42:49.254Z,84.70
2019-02-15T14:45:19.184Z,85.00
2019-02-15T14:47:54.839Z,85.40
2019-02-15T14:50:21.540Z,86.10
2019-02-15T14:52:51.869Z,86.30
2019-02-15T14:55:22.222Z,86.80
2019-02-15T14:57:52.593Z,87.10
2019-02-15T15:00:23.071Z,87.10
2019-02-15T15:02:53.425Z,87.60
2019-02-15T15:05:23.860Z,88.40
2019-02-15T15:07:54.184Z,88.50
2019-02-15T15:10:24.579Z,89.30
2019-02-15T15:12:54.928Z,89.70
2019-02-15T15:15:25.353Z,89.80
2019-02-15T15:18:05.885Z,90.10
2019-02-15T15:20:27.581Z,90.20
2019-02-15T15:22:57.894Z,90.50
2019-02-15T15:25:28.276Z,90.60
2019-02-15T15:27:58.653Z,90.80
2019-02-15T15:30:29.140Z,91.00
2019-02-15T15:32:59.469Z,91.10
2019-02-15T15:35:29.872Z,91.10
2019-02-15T15:38:01.130Z,91.20
2019-02-15T15:40:31.472Z,91.30
2019-02-15T15:43:01.870Z,91.30
2019-02-15T15:45:32.308Z,91.50
2019-02-15T15:48:02.709Z,91.60
2019-02-15T15:50:33.032Z,91.50
2019-02-15T15:53:03.405Z,91.60
2019-02-15T15:55:33.729Z,91.80
2019-02-15T15:58:08.678Z,92.10
2019-02-15T16:00:39.529Z,92.40
2019-02-15T16:03:09.879Z,92.50
2019-02-15T16:05:40.286Z,92.60
2019-02-15T16:08:11.693Z,92.90
2019-02-15T16:10:42.044Z,93.10
2019-02-15T16:13:12.431Z,93.10
2019-02-15T16:15:42.760Z,93.30
2019-02-15T16:18:13.114Z,93.40
2019-02-15T16:20:43.470Z,93.80
2019-02-15T16:23:13.828Z,93.70
2019-02-15T16:25:44.178Z,93.90
2019-02-15T16:28:14.596Z,94.00
2019-02-15T16:30:44.988Z,94.20
2019-02-15T16:33:15.346Z,94.30
2019-02-15T16:35:45.668Z,94.40
2019-02-15T16:38:16.776Z,94.50
2019-02-15T16:40:47.184Z,94.60
2019-02-15T16:43:17.588Z,94.60
2019-02-15T16:45:47.966Z,94.60
2019-02-15T16:48:18.288Z,94.70
2019-02-15T16:50:48.664Z,94.60
2019-02-15T16:53:18.991Z,94.80
2019-02-15T16:55:49.328Z,94.70
2019-02-15T16:58:21.061Z,94.80
2019-02-15T17:00:51.421Z,94.80
2019-02-15T17:03:21.800Z,94.90
2019-02-15T17:05:52.205Z,95.00
2019-02-15T17:08:24.044Z,95.50
2019-02-15T17:10:54.451Z,95.10
2019-02-15T17:13:24.800Z,95.20
2019-02-15T17:15:55.212Z,95.20
2019-02-15T17:18:25.572Z,95.20
2019-02-15T17:20:56.089Z,95.30
2019-02-15T17:23:26.451Z,95.30
2019-02-15T17:25:56.817Z,95.50
2019-02-15T17:28:27.173Z,95.80
2019-02-15T17:30:57.588Z,95.50
2019-02-15T17:33:28.352Z,95.50
2019-02-15T17:35:58.720Z,95.50
2019-02-15T17:38:30.104Z,95.70
2019-02-15T17:41:00.840Z,95.90
2019-02-15T17:43:31.198Z,96.10
2019-02-15T17:46:01.535Z,96.20
2019-02-15T17:48:31.960Z,96.40
2019-02-15T17:51:02.273Z,96.40
2019-02-15T17:53:32.642Z,96.50
2019-02-15T17:56:02.967Z,96.50
2019-02-15T17:58:33.305Z,96.60
2019-02-15T18:01:03.674Z,96.60
2019-02-15T18:03:34.052Z,96.70
2019-02-15T18:06:04.404Z,96.80
2019-02-15T18:08:36.154Z,96.70
2019-02-15T18:11:06.641Z,96.80
2019-02-15T18:13:36.939Z,96.90
2019-02-15T18:16:07.309Z,96.90
2019-02-15T18:18:37.598Z,97.00
2019-02-15T18:21:07.937Z,97.10
2019-02-15T18:23:38.296Z,97.20
2019-02-15T18:26:08.681Z,97.20
2019-02-15T18:28:40.112Z,97.40
2019-02-15T18:31:10.512Z,97.40
2019-02-15T18:33:41.976Z,97.30
2019-02-15T18:36:12.476Z,97.40
2019-02-15T18:38:42.817Z,97.40
2019-02-15T18:41:13.959Z,97.50
2019-02-15T18:43:45.502Z,97.60
2019-02-15T18:46:15.922Z,97.60
2019-02-15T18:48:46.277Z,97.60
2019-02-15T18:51:16.613Z,97.60
2019-02-15T18:53:48.072Z,97.80
2019-02-15T18:56:18.432Z,97.80
2019-02-15T18:58:48.830Z,97.80
2019-02-15T19:01:19.176Z,97.60
2019-02-15T19:03:49.731Z,97.70
2019-02-15T19:06:20.199Z,97.80
2019-02-15T19:08:50.572Z,97.70
2019-02-15T19:11:20.940Z,97.90
2019-02-15T19:13:51.278Z,97.90
2019-02-15T19:16:21.674Z,98.00
2019-02-15T19:18:52.020Z,98.10
2019-02-15T19:21:22.388Z,98.10
2019-02-15T19:23:53.700Z,98.00
2019-02-15T19:26:24.136Z,98.00
2019-02-15T19:28:54.524Z,98.00
2019-02-15T19:31:25.042Z,98.30
2019-02-15T19:33:55.394Z,98.00
2019-02-15T19:36:25.820Z,98.20
2019-02-15T19:38:56.200Z,98.30
2019-02-15T19:41:26.670Z,98.30
2019-02-15T19:43:57.053Z,98.40
2019-02-15T19:46:27.457Z,98.60
2019-02-15T19:48:57.809Z,98.60
2019-02-15T19:51:28.160Z,98.80
2019-02-15T19:53:58.542Z,98.50
2019-02-15T19:56:28.958Z,98.50
2019-02-15T19:58:59.360Z,98.50
2019-02-15T20:01:29.790Z,98.50
2019-02-15T20:04:00.181Z,98.50
2019-02-15T20:06:30.561Z,98.90
2019-02-15T20:09:02.004Z,98.60
2019-02-15T20:11:33.708Z,98.70
2019-02-15T20:14:04.042Z,98.70
2019-02-15T20:16:34.419Z,98.60
2019-02-15T20:19:04.744Z,98.60
2019-02-15T20:21:35.113Z,98.70
2019-02-15T20:24:05.518Z,98.70
2019-02-15T20:26:35.893Z,98.70
2019-02-15T20:29:06.266Z,98.80
2019-02-15T20:31:36.670Z,98.80
2019-02-15T20:34:07.080Z,98.90
2019-02-15T20:36:37.512Z,98.90
2019-02-15T20:39:07.988Z,98.90
2019-02-15T20:41:38.348Z,98.90
2019-02-15T20:44:09.074Z,98.90
2019-02-15T20:46:39.461Z,99.00
2019-02-15T20:49:09.806Z,99.00
2019-02-15T20:51:40.212Z,98.90
2019-02-15T20:54:10.556Z,98.70
2019-02-15T20:56:40.916Z,98.60
2019-02-15T20:59:11.262Z,98.60
2019-02-15T21:01:41.664Z,98.60
2019-02-15T21:04:12.010Z,98.70
2019-02-15T21:06:42.376Z,98.80
2019-02-15T21:09:14.270Z,98.90
2019-02-15T21:11:45.116Z,98.90
2019-02-15T21:14:15.446Z,98.90
2019-02-15T21:16:45.838Z,98.90
2019-02-15T21:19:16.230Z,99.00
2019-02-15T21:21:46.572Z,99.10
2019-02-15T21:24:17.007Z,99.10
2019-02-15T21:26:47.336Z,99.20
2019-02-15T21:29:17.715Z,99.10
2019-02-15T21:31:48.049Z,99.10
2019-02-15T21:34:18.554Z,99.30
2019-02-15T21:36:49.338Z,99.30
2019-02-15T21:39:19.714Z,99.20
2019-02-15T21:41:50.048Z,99.20
2019-02-15T21:44:20.894Z,99.20
2019-02-15T21:46:51.245Z,99.30
2019-02-15T21:49:21.630Z,99.40
2019-02-15T21:51:51.952Z,99.40
2019-02-15T21:54:22.729Z,99.40
2019-02-15T21:56:54.164Z,99.40
2019-02-15T21:59:24.583Z,99.40
2019-02-15T22:01:54.992Z,99.30
2019-02-15T22:04:25.375Z,99.30
2019-02-15T22:06:55.775Z,99.40
2019-02-15T22:09:27.446Z,99.50
2019-02-15T22:11:57.796Z,99.50
2019-02-15T22:14:28.133Z,99.70
2019-02-15T22:16:58.572Z,99.80
2019-02-15T22:19:28.901Z,99.80
2019-02-15T22:21:59.248Z,99.80
2019-02-15T22:24:29.616Z,99.90
2019-02-15T22:27:00.016Z,99.90
2019-02-15T22:29:30.683Z,99.90
2019-02-15T22:32:01.038Z,99.90
2019-02-15T22:34:31.381Z,99.90
2019-02-15T22:37:01.852Z,99.90
2019-02-15T22:39:32.187Z,99.90
2019-02-15T22:42:02.558Z,99.90
2019-02-15T22:44:32.929Z,99.90
2019-02-15T22:47:03.680Z,99.90
2019-02-15T22:49:43.077Z,99.90
2019-02-15T22:52:06.098Z,99.90
2019-02-15T22:54:36.489Z,99.90
2019-02-15T22:57:07.253Z,99.90
2019-02-15T22:59:37.631Z,99.90
2019-02-15T23:02:08.039Z,99.90
2019-02-15T23:04:38.431Z,99.90
2019-02-15T23:07:08.912Z,99.90
2019-02-15T23:09:40.299Z,99.90
2019-02-15T23:12:10.602Z,99.90
2019-02-15T23:14:40.952Z,99.90
2019-02-15T23:17:11.290Z,99.90
2019-02-15T23:19:41.622Z,99.90
2019-02-15T23:22:11.935Z,99.90
2019-02-15T23:24:42.351Z,99.90
2019-02-15T23:27:12.669Z,99.90
2019-02-15T23:29:43.016Z,99.90
2019-02-15T23:32:13.405Z,99.90
2019-02-15T23:34:43.796Z,99.90
2019-02-15T23:37:16.603Z,99.90
2019-02-15T23:39:47.800Z,99.90
2019-02-15T23:42:18.151Z,99.90
2019-02-15T23:44:48.928Z,99.90
2019-02-15T23:47:19.256Z,99.90
2019-02-15T23:49:49.597Z,99.90
2019-02-15T23:52:19.961Z,99.90
2019-02-15T23:54:50.331Z,99.90
2019-02-15T23:57:20.660Z,99.90
2019-02-15T23:59:51.006Z,99.90
